createdAt,value
2022-12-18T00:01:38.617Z,-3.82
2022-12-18T00:04:06.780Z,-3.83
2022-12-18T00:06:33.898Z,-3.78
2022-12-18T00:09:01.911Z,-3.85
2022-12-18T00:11:30.456Z,-3.87
2022-12-18T00:13:59.556Z,-3.89
2022-12-18T00:16:27.516Z,-3.91
2022-12-18T00:18:56.147Z,-3.89
2022-12-18T00:21:22.916Z,-3.91
2022-12-18T00:23:50.496Z,-4.09
2022-12-18T00:26:33.218Z,-4.12
2022-12-18T00:29:10.742Z,-4.11
2022-12-18T00:31:38.773Z,-4.11
2022-12-18T00:34:05.575Z,-4.18
2022-12-18T00:36:35.861Z,-4.28
2022-12-18T00:39:05.637Z,-4.42
2022-12-18T00:41:51.570Z,-4.51
2022-12-18T00:44:19.773Z,-4.29
2022-12-18T00:46:48.283Z,-4.23
2022-12-18T00:49:18.903Z,-4.29
2022-12-18T00:51:46.585Z,-4.17
2022-12-18T00:54:14.082Z,-4.20
2022-12-18T00:56:49.724Z,-4.16
2022-12-18T00:59:19.032Z,-4.25
2022-12-18T01:01:46.746Z,-4.42
2022-12-18T01:04:13.721Z,-4.50
2022-12-18T01:06:41.038Z,-4.53
2022-12-18T01:09:07.710Z,-4.60
2022-12-18T01:11:36.897Z,-4.64
2022-12-18T01:14:04.743Z,-4.74
2022-12-18T01:16:31.634Z,-4.59
2022-12-18T01:18:58.463Z,-4.47
2022-12-18T01:21:27.840Z,-4.25
2022-12-18T01:23:56.503Z,-4.06
2022-12-18T01:26:25.236Z,-4.12
2022-12-18T01:28:51.885Z,-4.14
2022-12-18T01:31:34.202Z,-4.08
2022-12-18T01:34:03.485Z,-3.92
2022-12-18T01:36:36.599Z,-3.68
2022-12-18T01:39:06.123Z,-3.47
2022-12-18T01:41:52.108Z,-3.38
2022-12-18T01:44:56.475Z,-3.62
2022-12-18T01:47:43.253Z,-3.77
2022-12-18T01:50:21.012Z,-3.77
2022-12-18T01:52:51.003Z,-3.82
2022-12-18T01:55:21.077Z,-4.04
2022-12-18T01:57:48.396Z,-4.21
2022-12-18T02:00:19.308Z,-4.13
2022-12-18T02:02:48.106Z,-3.98
2022-12-18T02:05:19.891Z,-3.95
2022-12-18T02:08:05.872Z,-3.90
2022-12-18T02:10:34.921Z,-3.92
2022-12-18T02:13:26.351Z,-4.02
2022-12-18T02:16:22.665Z,-4.23
2022-12-18T02:18:55.130Z,-4.41
2022-12-18T02:21:48.639Z,-4.42
2022-12-18T02:24:19.888Z,-4.39
2022-12-18T02:26:52.476Z,-4.23
2022-12-18T02:29:28.466Z,-4.28
2022-12-18T02:32:00.975Z,-4.41
2022-12-18T02:34:31.773Z,-4.42
2022-12-18T02:37:01.516Z,-4.52
2022-12-18T02:39:30.378Z,-4.58
2022-12-18T02:42:08.622Z,-4.44
2022-12-18T02:44:47.123Z,-4.21
2022-12-18T02:47:21.134Z,-4.13
2022-12-18T02:50:20.016Z,-3.97
2022-12-18T02:53:00.850Z,-3.81
2022-12-18T02:55:51.799Z,-3.87
2022-12-18T02:58:28.038Z,-3.96
2022-12-18T03:01:08.761Z,-4.15
2022-12-18T03:03:51.877Z,-4.06
2022-12-18T03:06:28.306Z,-3.82
2022-12-18T03:09:00.850Z,-3.63
2022-12-18T03:11:49.581Z,-3.62
2022-12-18T03:14:21.048Z,-3.53
2022-12-18T03:16:53.501Z,-3.50
2022-12-18T03:19:26.566Z,-3.67
2022-12-18T03:21:57.178Z,-3.84
2022-12-18T03:24:28.877Z,-4.17
2022-12-18T03:27:02.065Z,-4.46
2022-12-18T03:29:38.138Z,-4.50
2022-12-18T03:32:11.788Z,-4.20
2022-12-18T03:34:42.668Z,-3.93
2022-12-18T03:37:12.521Z,-3.69
2022-12-18T03:39:39.251Z,-3.48
2022-12-18T03:42:24.256Z,-3.44
2022-12-18T03:45:10.405Z,-3.64
2022-12-18T03:47:54.112Z,-3.63
2022-12-18T03:50:26.217Z,-3.70
2022-12-18T03:53:01.435Z,-3.58
2022-12-18T03:55:31.456Z,-3.72
2022-12-18T03:58:04.805Z,-4.01
2022-12-18T04:00:42.326Z,-3.95
2022-12-18T04:03:11.388Z,-3.84
2022-12-18T04:05:48.097Z,-3.68
2022-12-18T04:08:17.439Z,-3.56
2022-12-18T04:10:51.323Z,-3.44
2022-12-18T04:13:28.647Z,-3.22
2022-12-18T04:15:56.381Z,-3.26
2022-12-18T04:18:24.018Z,-3.41
2022-12-18T04:20:50.757Z,-3.38
2022-12-18T04:23:18.247Z,-3.29
2022-12-18T04:25:48.038Z,-3.21
2022-12-18T04:28:21.487Z,-3.26
2022-12-18T04:30:49.815Z,-3.37
2022-12-18T04:33:17.270Z,-3.42
2022-12-18T04:35:44.495Z,-3.45
2022-12-18T04:38:11.260Z,-3.79
2022-12-18T04:40:39.278Z,-3.87
2022-12-18T04:43:13.139Z,-3.92
2022-12-18T04:45:40.229Z,-3.81
2022-12-18T04:48:07.617Z,-3.85
2022-12-18T04:50:34.326Z,-3.80
2022-12-18T04:53:00.872Z,-4.02
2022-12-18T04:55:28.539Z,-3.94
2022-12-18T04:57:55.186Z,-3.79
2022-12-18T05:00:22.352Z,-3.91
2022-12-18T05:02:49.158Z,-3.96
2022-12-18T05:05:16.096Z,-3.71
2022-12-18T05:07:42.842Z,-3.49
2022-12-18T05:10:10.390Z,-3.31
2022-12-18T05:12:57.034Z,-3.18
2022-12-18T05:15:23.931Z,-3.10
2022-12-18T05:17:50.708Z,-3.01
2022-12-18T05:20:17.410Z,-2.99
2022-12-18T05:22:44.174Z,-3.03
2022-12-18T05:25:11.099Z,-3.15
2022-12-18T05:27:37.900Z,-3.03
2022-12-18T05:30:05.228Z,-3.00
2022-12-18T05:32:35.310Z,-2.92
2022-12-18T05:35:02.325Z,-2.89
2022-12-18T05:37:29.077Z,-2.96
2022-12-18T05:39:55.912Z,-2.97
2022-12-18T05:42:22.714Z,-3.09
2022-12-18T05:44:49.318Z,-3.19
2022-12-18T05:47:15.968Z,-3.39
2022-12-18T05:49:42.608Z,-3.68
2022-12-18T05:52:09.918Z,-3.58
2022-12-18T05:54:36.739Z,-3.38
2022-12-18T05:57:03.712Z,-3.21
2022-12-18T05:59:30.344Z,-3.11
2022-12-18T06:01:59.407Z,-3.06
2022-12-18T06:04:29.251Z,-3.11
2022-12-18T06:06:57.068Z,-3.04
2022-12-18T06:09:23.859Z,-3.02
2022-12-18T06:11:53.117Z,-3.04
2022-12-18T06:14:19.956Z,-3.02
2022-12-18T06:16:46.513Z,-3.01
2022-12-18T06:19:16.782Z,-2.97
2022-12-18T06:21:43.447Z,-2.93
2022-12-18T06:24:10.169Z,-2.87
2022-12-18T06:26:39.947Z,-2.79
2022-12-18T06:29:06.792Z,-2.82
2022-12-18T06:31:33.709Z,-2.84
2022-12-18T06:34:02.729Z,-2.88
2022-12-18T06:36:29.944Z,-2.89
2022-12-18T06:38:57.651Z,-2.90
2022-12-18T06:41:24.939Z,-2.90
2022-12-18T06:43:54.620Z,-2.98
2022-12-18T06:46:25.133Z,-3.11
2022-12-18T06:48:52.076Z,-3.18
2022-12-18T06:51:21.059Z,-3.30
2022-12-18T06:53:47.940Z,-3.40
2022-12-18T06:56:14.838Z,-3.48
2022-12-18T06:58:41.657Z,-3.55
2022-12-18T07:01:11.461Z,-3.60
2022-12-18T07:03:40.828Z,-3.57
2022-12-18T07:06:14.033Z,-3.69
2022-12-18T07:08:40.739Z,-3.70
2022-12-18T07:11:07.504Z,-3.64
2022-12-18T07:13:34.125Z,-3.55
2022-12-18T07:16:09.737Z,-3.69
2022-12-18T07:18:39.883Z,-3.78
2022-12-18T07:21:09.310Z,-3.90
2022-12-18T07:23:37.056Z,-3.89
2022-12-18T07:26:14.553Z,-3.99
2022-12-18T07:28:42.230Z,-4.07
2022-12-18T07:31:14.783Z,-4.20
2022-12-18T07:33:42.384Z,-4.16
2022-12-18T07:36:11.926Z,-4.35
2022-12-18T07:38:38.835Z,-4.57
2022-12-18T07:41:08.038Z,-4.63
2022-12-18T07:43:35.547Z,-4.65
2022-12-18T07:46:02.291Z,-4.57
2022-12-18T07:48:29.986Z,-4.63
2022-12-18T07:51:07.363Z,-4.50
2022-12-18T07:53:35.191Z,-4.43
2022-12-18T07:56:26.703Z,-4.44
2022-12-18T07:58:51.738Z,-4.60
2022-12-18T08:01:18.484Z,-4.84
2022-12-18T08:03:45.774Z,-4.87
2022-12-18T08:06:12.492Z,-4.77
2022-12-18T08:08:41.130Z,-4.63
2022-12-18T08:11:07.987Z,-4.47
2022-12-18T08:13:34.713Z,-4.35
2022-12-18T08:16:04.905Z,-4.16
2022-12-18T08:18:36.965Z,-4.04
2022-12-18T08:21:13.855Z,-4.23
2022-12-18T08:23:43.344Z,-4.15
2022-12-18T08:26:11.950Z,-4.23
2022-12-18T08:28:39.195Z,-4.19
2022-12-18T08:31:06.722Z,-4.07
2022-12-18T08:33:34.186Z,-3.88
2022-12-18T08:36:01.894Z,-3.76
2022-12-18T08:38:28.542Z,-3.92
2022-12-18T08:41:02.722Z,-4.05
2022-12-18T08:43:47.882Z,-4.01
2022-12-18T08:46:15.057Z,-4.07
2022-12-18T08:48:42.140Z,-3.96
2022-12-18T08:51:10.663Z,-3.88
2022-12-18T08:53:38.551Z,-3.89
2022-12-18T08:56:06.300Z,-3.83
2022-12-18T08:58:33.109Z,-3.72
2022-12-18T09:01:05.408Z,-3.75
2022-12-18T09:03:32.300Z,-3.74
2022-12-18T09:05:59.515Z,-3.83
2022-12-18T09:08:26.898Z,-3.77
2022-12-18T09:10:53.599Z,-3.72
2022-12-18T09:13:22.891Z,-3.80
2022-12-18T09:15:52.217Z,-3.63
2022-12-18T09:18:23.164Z,-3.52
2022-12-18T09:20:52.852Z,-3.35
2022-12-18T09:23:21.725Z,-3.16
2022-12-18T09:25:51.783Z,-2.99
2022-12-18T09:28:22.730Z,-2.82
2022-12-18T09:30:50.498Z,-2.58
2022-12-18T09:33:18.390Z,-2.39
2022-12-18T09:35:46.718Z,-2.23
2022-12-18T09:38:19.935Z,-2.03
2022-12-18T09:40:53.878Z,-1.93
2022-12-18T09:43:43.227Z,-1.85
2022-12-18T09:46:20.397Z,-1.84
2022-12-18T09:48:51.117Z,-1.79
2022-12-18T09:51:20.957Z,-1.71
2022-12-18T09:53:54.987Z,-1.56
2022-12-18T09:56:24.048Z,-1.42
2022-12-18T09:59:00.509Z,-1.24
2022-12-18T10:01:38.901Z,-1.06
2022-12-18T10:04:10.758Z,-0.98
2022-12-18T10:06:37.587Z,-0.84
2022-12-18T10:09:26.738Z,-0.69
2022-12-18T10:12:45.744Z,-0.63
2022-12-18T10:15:22.921Z,-0.71
2022-12-18T10:18:01.899Z,-0.73
2022-12-18T10:20:38.199Z,-0.62
2022-12-18T10:23:48.427Z,-0.57
2022-12-18T10:26:15.569Z,-0.54
2022-12-18T10:28:44.765Z,-0.49
2022-12-18T10:31:18.919Z,-0.38
2022-12-18T10:33:46.530Z,-0.21
2022-12-18T10:36:17.673Z,-0.02
2022-12-18T10:38:44.964Z,0.10
2022-12-18T10:41:27.461Z,0.20
2022-12-18T10:44:21.305Z,-0.17
2022-12-18T10:46:57.375Z,-0.23
2022-12-18T10:49:34.668Z,-0.25
2022-12-18T10:52:20.190Z,0.06
2022-12-18T10:55:02.611Z,0.37
2022-12-18T10:57:42.229Z,0.65
2022-12-18T11:00:29.033Z,0.76
2022-12-18T11:02:57.255Z,0.86
2022-12-18T11:05:32.259Z,0.90
2022-12-18T11:08:01.025Z,0.98
2022-12-18T11:10:39.325Z,0.98
2022-12-18T11:13:27.673Z,0.75
2022-12-18T11:16:16.170Z,0.65
2022-12-18T11:18:48.876Z,0.68
2022-12-18T11:21:31.614Z,0.80
2022-12-18T11:24:01.355Z,0.96
2022-12-18T11:26:38.196Z,1.16
2022-12-18T11:29:16.708Z,1.24
2022-12-18T11:31:50.644Z,1.30
2022-12-18T11:34:28.994Z,1.48
2022-12-18T11:37:03.723Z,1.59
2022-12-18T11:39:55.304Z,1.57
2022-12-18T11:42:35.850Z,1.62
2022-12-18T11:45:08.717Z,1.78
2022-12-18T11:47:40.777Z,1.80
2022-12-18T11:50:25.088Z,1.80
2022-12-18T11:53:04.181Z,1.91
2022-12-18T11:56:02.518Z,2.76
2022-12-18T11:58:55.416Z,3.33
2022-12-18T12:01:38.950Z,3.53
2022-12-18T12:04:39.410Z,3.33
2022-12-18T12:07:22.800Z,3.47
2022-12-18T12:10:23.326Z,3.63
2022-12-18T12:13:02.230Z,3.63
2022-12-18T12:15:47.926Z,3.28
2022-12-18T12:18:38.225Z,3.20
2022-12-18T12:21:42.958Z,2.82
2022-12-18T12:24:38.512Z,1.89
2022-12-18T12:27:28.923Z,1.18
2022-12-18T12:30:05.243Z,1.45
2022-12-18T12:32:38.066Z,1.90
2022-12-18T12:35:30.161Z,2.22
2022-12-18T12:38:12.136Z,2.34
2022-12-18T12:41:02.907Z,2.19
2022-12-18T12:46:35.257Z,1.39
2022-12-18T12:49:10.821Z,0.93
2022-12-18T12:51:44.486Z,0.51
2022-12-18T12:54:23.051Z,0.44
2022-12-18T12:57:10.452Z,0.57
2022-12-18T12:59:56.483Z,0.49
2022-12-18T13:02:40.483Z,0.60
2022-12-18T13:05:15.956Z,0.45
2022-12-18T13:07:55.795Z,0.18
2022-12-18T13:10:33.017Z,0.16
2022-12-18T13:13:07.240Z,0.35
2022-12-18T13:13:43.127Z,1.92
2022-12-18T13:15:46.154Z,0.48
2022-12-18T13:18:15.633Z,0.52
2022-12-18T13:20:50.711Z,0.23
2022-12-18T13:23:29.410Z,-0.08
2022-12-18T13:25:58.701Z,-0.01
2022-12-18T13:28:37.676Z,-0.14
2022-12-18T13:31:04.660Z,-0.01
2022-12-18T13:34:02.077Z,0.15
2022-12-18T13:36:34.693Z,0.12
2022-12-18T13:39:11.078Z,0.13
2022-12-18T13:41:38.267Z,0.11
2022-12-18T13:44:35.954Z,-0.04
2022-12-18T13:47:29.396Z,0.20
2022-12-18T13:50:00.859Z,0.39
2022-12-18T13:52:40.154Z,0.23
2022-12-18T13:55:17.655Z,0.05
2022-12-18T13:57:50.692Z,0.09
2022-12-18T14:00:29.726Z,0.18
2022-12-18T14:02:58.867Z,0.28
2022-12-18T14:05:38.791Z,0.33
2022-12-18T14:08:11.704Z,0.30
2022-12-18T14:10:50.702Z,0.50
2022-12-18T14:13:39.422Z,0.65
2022-12-18T14:16:08.795Z,0.70
2022-12-18T14:18:53.524Z,0.75
2022-12-18T14:21:31.189Z,0.73
2022-12-18T14:24:19.517Z,0.72
2022-12-18T14:26:50.044Z,0.52
2022-12-18T14:29:29.492Z,0.34
2022-12-18T14:32:29.360Z,0.35
2022-12-18T14:34:56.624Z,0.30
2022-12-18T14:37:31.278Z,0.29
2022-12-18T14:40:15.131Z,0.31
2022-12-18T14:42:45.234Z,0.27
2022-12-18T14:45:42.597Z,0.31
2022-12-18T14:48:29.185Z,0.29
2022-12-18T14:51:37.403Z,0.33
2022-12-18T14:54:16.246Z,0.29
2022-12-18T14:56:49.641Z,0.31
2022-12-18T14:59:24.543Z,0.33
2022-12-18T15:02:06.022Z,0.36
2022-12-18T15:04:38.456Z,0.33
2022-12-18T15:07:11.280Z,0.24
2022-12-18T15:09:40.765Z,0.04
2022-12-18T15:12:25.600Z,-0.18
2022-12-18T15:14:52.590Z,-0.44
2022-12-18T15:17:23.855Z,-0.54
2022-12-18T15:19:59.726Z,-0.51
2022-12-18T15:22:34.730Z,-0.66
2022-12-18T15:25:03.339Z,-0.78
2022-12-18T15:27:39.970Z,-0.79
2022-12-18T15:30:13.222Z,-0.77
2022-12-18T15:32:43.517Z,-0.84
2022-12-18T15:35:13.113Z,-0.74
2022-12-18T15:37:40.122Z,-0.63
2022-12-18T15:40:15.640Z,-0.71
2022-12-18T15:43:08.455Z,-0.79
2022-12-18T15:45:38.444Z,-0.87
2022-12-18T15:48:25.897Z,-0.86
2022-12-18T15:50:59.833Z,-0.75
2022-12-18T15:53:32.370Z,-0.62
2022-12-18T15:56:28.687Z,-0.42
2022-12-18T15:59:18.148Z,-0.30
2022-12-18T16:01:47.769Z,-0.24
2022-12-18T16:04:21.665Z,-0.16
2022-12-18T16:09:37.910Z,-0.24
2022-12-18T16:12:04.973Z,-0.26
2022-12-18T16:14:33.277Z,-0.27
2022-12-18T16:17:01.783Z,-0.24
2022-12-18T16:19:31.022Z,-0.21
2022-12-18T16:21:58.759Z,-0.11
2022-12-18T16:24:30.100Z,-0.15
2022-12-18T16:26:57.613Z,-0.17
2022-12-18T16:29:28.280Z,-0.17
2022-12-18T16:31:59.220Z,-0.14
2022-12-18T16:34:29.303Z,-0.17
2022-12-18T16:37:04.673Z,-0.16
2022-12-18T16:39:35.100Z,-0.17
2022-12-18T16:42:05.812Z,-0.17
2022-12-18T16:44:33.626Z,-0.14
2022-12-18T16:47:02.899Z,-0.19
2022-12-18T16:49:32.609Z,-0.14
2022-12-18T16:52:05.265Z,-0.07
2022-12-18T16:54:35.775Z,0.03
2022-12-18T16:57:08.200Z,0.11
2022-12-18T16:59:36.267Z,-0.02
2022-12-18T17:02:03.554Z,-0.11
2022-12-18T17:04:34.204Z,-0.17
2022-12-18T17:07:01.828Z,-0.26
2022-12-18T17:09:35.342Z,-0.17
2022-12-18T17:12:10.540Z,-0.09
2022-12-18T17:14:37.581Z,-0.01
2022-12-18T17:17:20.879Z,-0.02
2022-12-18T17:19:53.848Z,0.03
2022-12-18T17:22:26.926Z,0.02
2022-12-18T17:24:56.870Z,0.00
2022-12-18T17:27:23.668Z,0.02
2022-12-18T17:29:51.088Z,-0.04
2022-12-18T17:32:18.077Z,-0.12
2022-12-18T17:34:45.016Z,-0.11
2022-12-18T17:37:11.810Z,-0.13
2022-12-18T17:39:38.477Z,-0.11
2022-12-18T17:42:05.336Z,-0.16
2022-12-18T17:44:33.995Z,-0.13
2022-12-18T17:47:00.724Z,-0.12
2022-12-18T17:49:32.509Z,-0.16
2022-12-18T17:52:02.521Z,-0.14
2022-12-18T17:54:31.721Z,-0.06
2022-12-18T17:57:00.100Z,-0.03
2022-12-18T17:59:27.134Z,-0.01
2022-12-18T18:01:54.123Z,0.02
2022-12-18T18:04:22.929Z,0.04
2022-12-18T18:06:50.560Z,0.11
2022-12-18T18:09:19.562Z,-0.05
2022-12-18T18:12:04.708Z,-0.14
2022-12-18T18:14:31.913Z,-0.07
2022-12-18T18:17:04.102Z,0.00
2022-12-18T18:19:35.104Z,-0.02
2022-12-18T18:22:02.938Z,0.05
2022-12-18T18:24:30.493Z,0.14
2022-12-18T18:27:00.028Z,0.20
2022-12-18T18:29:28.313Z,0.20
2022-12-18T18:31:56.084Z,0.21
2022-12-18T18:34:24.435Z,0.18
2022-12-18T18:36:51.734Z,0.16
2022-12-18T18:39:19.187Z,0.14
2022-12-18T18:41:47.953Z,0.12
2022-12-18T18:44:14.959Z,0.10
2022-12-18T18:46:41.714Z,0.15
2022-12-18T18:49:08.459Z,0.14
2022-12-18T18:51:35.583Z,0.13
2022-12-18T18:54:02.268Z,0.14
2022-12-18T18:59:15.954Z,-0.08
2022-12-18T19:01:43.069Z,-0.08
2022-12-18T19:04:12.884Z,-0.10
2022-12-18T19:06:50.104Z,-0.10
2022-12-18T19:09:17.324Z,-0.21
2022-12-18T19:12:05.422Z,-0.31
2022-12-18T19:14:35.833Z,-0.44
2022-12-18T19:17:02.826Z,-0.53
2022-12-18T19:19:33.107Z,-0.50
2022-12-18T19:21:59.714Z,-0.44
2022-12-18T19:24:35.998Z,-0.36
2022-12-18T19:27:05.258Z,-0.26
2022-12-18T19:29:32.327Z,-0.29
2022-12-18T19:32:04.505Z,-0.15
2022-12-18T19:34:34.000Z,-0.09
2022-12-18T19:37:01.278Z,-0.11
2022-12-18T19:39:27.981Z,-0.04
2022-12-18T19:41:55.536Z,-0.10
2022-12-18T19:44:22.627Z,-0.03
2022-12-18T19:46:52.618Z,0.05
2022-12-18T19:49:19.297Z,0.13
2022-12-18T19:51:46.267Z,0.25
2022-12-18T19:54:17.463Z,0.40
2022-12-18T19:56:45.053Z,0.50
2022-12-18T19:59:11.900Z,0.59
2022-12-18T20:01:39.106Z,0.49
2022-12-18T20:04:09.306Z,0.42
2022-12-18T20:06:45.932Z,0.34
2022-12-18T20:09:12.622Z,0.22
2022-12-18T20:11:41.511Z,0.22
2022-12-18T20:14:12.235Z,0.12
2022-12-18T20:16:41.940Z,0.17
2022-12-18T20:19:10.908Z,0.14
2022-12-18T20:21:37.952Z,0.44
2022-12-18T20:24:04.753Z,0.47
2022-12-18T20:26:33.708Z,0.43
2022-12-18T20:29:11.095Z,0.32
2022-12-18T20:31:41.216Z,0.30
2022-12-18T20:34:11.426Z,0.39
2022-12-18T20:36:38.693Z,0.48
2022-12-18T20:39:08.735Z,0.58
2022-12-18T20:41:37.943Z,0.51
2022-12-18T20:44:21.788Z,0.46
2022-12-18T20:46:54.777Z,0.39
2022-12-18T20:49:22.580Z,0.13
2022-12-18T20:51:57.135Z,0.00
2022-12-18T20:54:24.893Z,-0.05
2022-12-18T20:56:54.304Z,-0.11
2022-12-18T20:59:23.046Z,-0.14
2022-12-18T21:01:50.090Z,-0.10
2022-12-18T21:04:18.590Z,0.07
2022-12-18T21:06:53.280Z,0.09
2022-12-18T21:09:23.150Z,0.03
2022-12-18T21:12:08.825Z,0.12
2022-12-18T21:14:38.673Z,0.02
2022-12-18T21:17:05.882Z,0.06
2022-12-18T21:19:32.493Z,0.29
2022-12-18T21:22:01.769Z,0.45
2022-12-18T21:24:28.870Z,0.30
2022-12-18T21:26:59.596Z,0.07
2022-12-18T21:29:26.510Z,-0.08
2022-12-18T21:31:54.664Z,-0.02
2022-12-18T21:34:22.643Z,-0.07
2022-12-18T21:36:49.750Z,-0.11
2022-12-18T21:39:16.923Z,-0.12
2022-12-18T21:42:02.243Z,-0.17
2022-12-18T21:44:29.447Z,-0.11
2022-12-18T21:47:02.466Z,-0.08
2022-12-18T21:49:36.327Z,-0.08
2022-12-18T21:52:02.951Z,-0.02
2022-12-18T21:54:30.101Z,-0.06
2022-12-18T21:57:00.925Z,0.05
2022-12-18T21:59:29.346Z,0.27
2022-12-18T22:01:58.142Z,0.39
2022-12-18T22:04:25.370Z,0.39
2022-12-18T22:06:55.551Z,0.44
2022-12-18T22:09:25.171Z,0.17
2022-12-18T22:11:52.234Z,0.04
2022-12-18T22:14:19.587Z,0.02
2022-12-18T22:16:46.527Z,0.12
2022-12-18T22:19:14.176Z,0.23
2022-12-18T22:21:46.601Z,0.25
2022-12-18T22:24:14.717Z,0.25
2022-12-18T22:26:41.710Z,0.25
2022-12-18T22:29:31.588Z,0.31
2022-12-18T22:32:00.395Z,0.25
2022-12-18T22:34:27.091Z,0.30
2022-12-18T22:36:53.689Z,0.31
2022-12-18T22:39:23.414Z,0.39
2022-12-18T22:41:51.272Z,0.39
2022-12-18T22:44:18.289Z,0.45
2022-12-18T22:46:46.734Z,0.47
2022-12-18T22:49:18.557Z,0.46
2022-12-18T22:51:45.195Z,0.55
2022-12-18T22:54:12.505Z,0.53
2022-12-18T22:56:39.531Z,0.56
2022-12-18T22:59:06.151Z,0.59
2022-12-18T23:01:33.324Z,0.65
2022-12-18T23:04:04.477Z,0.75
2022-12-18T23:06:31.134Z,0.73
2022-12-18T23:08:58.192Z,0.51
2022-12-18T23:11:25.820Z,0.50
2022-12-18T23:13:55.732Z,0.50
2022-12-18T23:16:25.663Z,0.68
2022-12-18T23:18:55.662Z,0.83
2022-12-18T23:21:25.748Z,0.86
2022-12-18T23:23:52.770Z,0.78
2022-12-18T23:26:22.642Z,0.50
2022-12-18T23:28:50.339Z,0.33
2022-12-18T23:31:19.078Z,0.40
2022-12-18T23:33:46.647Z,0.51
2022-12-18T23:36:13.905Z,0.66
2022-12-18T23:38:41.287Z,0.70
2022-12-18T23:41:08.890Z,0.72
2022-12-18T23:43:35.651Z,0.66
2022-12-18T23:46:02.314Z,0.66
2022-12-18T23:48:29.064Z,0.88
2022-12-18T23:50:55.946Z,1.09
2022-12-18T23:53:22.451Z,1.22
2022-12-18T23:55:51.446Z,1.26
2022-12-18T23:58:19.989Z,1.40
